Time;durP1;ratioP1;P1;durP2;ratioP2;P2;SDS_P1;SDS_P2;PMS_P1;PMS_P2;Temp;Humidity;BMP_temperature;BMP_pressure;BME280_temperature;BME280_humidity;BME280_pressure;Samples;Min_cycle;Max_cycle;Signal;HPM_P1;HPM_P2
2022/04/24 00:02:01;;;;;;;6.82;5.43;;;;;;;12.14;65.69;100422.00;5092904;28;20039;-69
2022/04/24 00:04:26;;;;;;;8.68;5.40;;;;;;;12.05;66.32;100416.69;5093205;28;20445;-69
2022/04/24 00:06:53;;;;;;;11.45;6.22;;;;;;;12.04;66.49;100420.19;5091033;28;20097;-68
2022/04/24 00:09:21;;;;;;;9.18;5.53;;;;;;;12.07;66.46;100424.59;5093338;28;20383;-68
2022/04/24 00:11:47;;;;;;;5.80;5.20;;;;;;;12.01;67.33;100420.19;5093048;28;20103;-68
2022/04/24 00:14:12;;;;;;;6.45;5.68;;;;;;;11.96;67.15;100416.66;5093012;28;20059;-67
2022/04/24 00:16:38;;;;;;;7.43;6.13;;;;;;;11.93;67.17;100417.47;5091541;28;20028;-67
2022/04/24 00:19:05;;;;;;;6.70;5.88;;;;;;;11.77;68.09;100411.28;5091695;28;20088;-68
2022/04/24 00:21:31;;;;;;;6.90;5.78;;;;;;;11.81;68.36;100417.44;5092747;28;20032;-68
2022/04/24 00:23:57;;;;;;;7.80;5.93;;;;;;;11.81;68.39;100406.91;5092992;28;20039;-68
2022/04/24 00:26:22;;;;;;;6.90;5.57;;;;;;;11.71;69.33;100411.25;5092617;28;20056;-69
2022/04/24 00:28:49;;;;;;;7.03;6.30;;;;;;;11.70;69.28;100404.22;5092821;28;20105;-68
2022/04/24 00:31:14;;;;;;;12.10;5.28;;;;;;;11.54;70.09;100402.38;5092612;28;20024;-69
2022/04/24 00:33:39;;;;;;;6.97;6.25;;;;;;;11.59;70.36;100406.78;5092643;28;20035;-68
2022/04/24 00:36:05;;;;;;;7.93;7.05;;;;;;;11.52;71.10;100409.41;5091978;28;20543;-68
2022/04/24 00:38:34;;;;;;;10.85;6.45;;;;;;;11.55;71.12;100404.13;5092720;28;20031;-68
2022/04/24 00:40:59;;;;;;;6.57;5.88;;;;;;;11.45;71.47;100404.09;5091412;28;20520;-68
2022/04/24 00:43:24;;;;;;;7.30;6.28;;;;;;;11.52;71.39;100401.50;5092423;28;20051;-68
2022/04/24 00:46:00;;;;;;;7.93;6.53;;;;;;;11.43;71.55;100397.91;5092764;28;20126;-68
2022/04/24 00:48:26;;;;;;;6.55;5.88;;;;;;;11.30;72.42;100398.72;5092025;28;20116;-68
2022/04/24 00:50:51;;;;;;;8.93;5.95;;;;;;;11.33;72.29;100404.00;5092733;28;20028;-69
2022/04/24 00:53:17;;;;;;;7.90;6.22;;;;;;;11.33;71.68;100409.28;5092430;28;20336;-68
2022/04/24 00:55:43;;;;;;;6.95;6.07;;;;;;;11.18;72.73;100402.16;5092657;28;20036;-69
2022/04/24 00:58:10;;;;;;;7.78;6.57;;;;;;;11.24;71.95;100401.31;5092656;28;20458;-68
2022/04/24 01:00:38;;;;;;;9.35;6.55;;;;;;;11.25;72.78;100405.72;5092083;28;20312;-68
2022/04/24 01:03:03;;;;;;;8.35;6.68;;;;;;;11.25;73.15;100398.69;5092355;28;20020;-68
2022/04/24 01:05:28;;;;;;;10.90;6.57;;;;;;;11.20;73.42;100392.50;5092667;28;20455;-69
2022/04/24 01:07:54;;;;;;;7.30;6.60;;;;;;;11.13;73.48;100398.59;5092265;28;20479;-69
2022/04/24 01:10:19;;;;;;;9.07;7.22;;;;;;;11.10;73.60;100391.56;5092527;28;20020;-69
2022/04/24 01:12:44;;;;;;;11.57;6.40;;;;;;;11.11;73.53;100397.72;5092216;28;20028;-68
2022/04/24 01:15:10;;;;;;;8.40;7.00;;;;;;;11.09;74.14;100400.31;5092307;28;20032;-69
2022/04/24 01:17:35;;;;;;;8.73;6.82;;;;;;;11.10;74.63;100402.09;5092316;28;20046;-68
2022/04/24 01:20:01;;;;;;;9.43;6.32;;;;;;;10.99;74.54;100402.88;5092093;28;20034;-69
2022/04/24 01:22:26;;;;;;;8.20;7.30;;;;;;;10.96;74.91;100406.41;5091680;28;20024;-69
2022/04/24 01:24:51;;;;;;;11.90;7.60;;;;;;;11.04;76.36;100406.44;5092036;28;20036;-69
2022/04/24 01:27:17;;;;;;;8.63;7.68;;;;;;;11.02;75.22;100406.44;5092838;28;20088;-69
2022/04/24 01:29:42;;;;;;;12.93;8.60;;;;;;;10.88;76.50;100403.69;5092188;28;20368;-69
2022/04/24 01:32:08;;;;;;;10.23;7.90;;;;;;;10.89;76.99;100402.84;5092223;28;20020;-69
2022/04/24 01:34:33;;;;;;;15.05;8.93;;;;;;;10.82;77.07;100402.75;5091760;28;20024;-69
2022/04/24 01:36:58;;;;;;;10.48;8.00;;;;;;;10.86;78.08;100401.91;5092078;28;20408;-69
2022/04/24 01:39:24;;;;;;;9.75;8.65;;;;;;;10.77;78.70;100408.88;5107768;28;20024;-68
2022/04/24 01:41:51;;;;;;;9.73;8.73;;;;;;;10.80;79.45;100408.88;5091816;28;20102;-69
2022/04/24 01:44:16;;;;;;;12.77;9.68;;;;;;;10.80;79.49;100402.75;5091851;28;20028;-69
2022/04/24 01:46:42;;;;;;;12.07;9.80;;;;;;;10.58;80.89;100415.72;5094131;28;20027;-69
2022/04/24 01:49:07;;;;;;;15.50;10.15;;;;;;;10.68;80.54;100411.41;5095448;28;20467;-69
2022/04/24 01:51:32;;;;;;;13.18;10.45;;;;;;;10.65;81.04;100408.75;5095862;28;20028;-69
2022/04/24 01:53:58;;;;;;;12.65;10.43;;;;;;;10.61;80.84;100414.88;5095536;28;20036;-69
2022/04/24 01:56:23;;;;;;;14.25;9.80;;;;;;;10.73;81.12;100411.44;5095351;28;20016;-69
2022/04/24 01:58:48;;;;;;;13.13;10.15;;;;;;;10.67;81.11;100414.03;5095662;28;20122;-70
2022/04/24 02:01:14;;;;;;;13.32;10.65;;;;;;;10.67;81.82;100407.00;5095364;28;20020;-69
2022/04/24 02:03:39;;;;;;;14.20;10.88;;;;;;;10.64;82.48;100414.88;5094409;28;20028;-69
2022/04/24 02:06:05;;;;;;;13.45;10.40;;;;;;;10.62;82.18;100413.97;5095715;28;20057;-69
2022/04/24 02:08:32;;;;;;;13.20;10.93;;;;;;;10.55;82.71;100414.78;5111541;28;20016;-68
2022/04/24 02:10:58;;;;;;;17.80;11.07;;;;;;;10.53;82.79;100419.16;5095350;28;20077;-69
2022/04/24 02:13:23;;;;;;;14.55;10.30;;;;;;;10.56;83.74;100419.19;5094493;28;20111;-69
2022/04/24 02:15:50;;;;;;;14.15;10.63;;;;;;;10.47;83.80;100425.22;5095837;28;20063;-69
2022/04/24 02:18:15;;;;;;;13.85;10.60;;;;;;;10.42;84.39;100422.56;5095424;28;20040;-69
2022/04/24 02:20:41;;;;;;;14.18;11.02;;;;;;;10.38;85.69;100426.03;5095236;28;20080;-69
2022/04/24 02:23:08;;;;;;;15.77;11.32;;;;;;;10.37;85.04;100418.13;5095210;28;20107;-68
2022/04/24 02:25:33;;;;;;;15.43;11.48;;;;;;;10.26;86.29;100428.50;5094594;28;20078;-70
2022/04/24 02:27:59;;;;;;;18.05;11.23;;;;;;;10.30;86.76;100425.03;5095046;28;20032;-69
2022/04/24 02:30:28;;;;;;;13.60;11.23;;;;;;;10.34;87.29;100423.34;5094574;28;20032;-68
2022/04/24 02:32:58;;;;;;;17.25;11.70;;;;;;;10.31;86.95;100424.19;5095247;28;20024;-69
2022/04/24 02:35:25;;;;;;;16.70;12.23;;;;;;;10.26;87.38;100421.47;5094843;28;20088;-68
2022/04/24 02:37:50;;;;;;;15.63;12.20;;;;;;;10.26;87.82;100424.09;5095364;28;20508;-68
2022/04/24 02:40:19;;;;;;;21.67;12.15;;;;;;;10.20;88.50;100436.31;5094569;28;20125;-68
2022/04/24 02:42:45;;;;;;;14.98;10.82;;;;;;;10.13;88.97;100425.72;5094924;28;20201;-69
2022/04/24 02:45:10;;;;;;;18.73;12.73;;;;;;;10.18;88.81;100415.25;5094575;28;20103;-69
2022/04/24 02:47:38;;;;;;;18.08;12.15;;;;;;;10.18;88.87;100428.41;5094864;28;20119;-68
2022/04/24 02:50:04;;;;;;;15.15;10.90;;;;;;;10.20;88.97;100433.66;5094641;28;20063;-68
2022/04/24 02:52:29;;;;;;;16.63;11.85;;;;;;;10.18;88.76;100428.41;5094679;28;20081;-68
2022/04/24 02:54:55;;;;;;;20.17;11.85;;;;;;;10.13;88.64;100441.50;5093644;28;20024;-68
2022/04/24 02:57:21;;;;;;;18.13;11.50;;;;;;;10.02;89.91;100431.72;5093822;28;20024;-68
2022/04/24 02:59:49;;;;;;;15.15;11.48;;;;;;;10.06;89.58;100438.78;5093828;28;20016;-68
2022/04/24 03:02:14;;;;;;;16.48;11.25;;;;;;;10.06;89.62;100436.16;5094839;28;20028;-69
2022/04/24 03:04:40;;;;;;;16.80;11.18;;;;;;;10.02;89.44;100437.84;5094518;28;20028;-68
2022/04/24 03:07:06;;;;;;;13.60;11.00;;;;;;;9.98;89.50;100441.31;5094554;28;20031;-67
2022/04/24 03:09:32;;;;;;;14.70;10.85;;;;;;;9.86;90.65;100435.91;5094092;28;20105;-68
2022/04/24 03:11:57;;;;;;;17.63;10.80;;;;;;;9.90;90.11;100442.94;5094670;28;20024;-68
2022/04/24 03:14:22;;;;;;;13.93;10.57;;;;;;;9.92;90.09;100430.72;5093670;28;20384;-68
2022/04/24 03:16:48;;;;;;;13.90;10.93;;;;;;;9.86;89.92;100430.63;5094492;28;20016;-68
2022/04/24 03:19:13;;;;;;;12.60;10.00;;;;;;;9.88;89.83;100431.56;5093950;28;20056;-68
2022/04/24 03:21:38;;;;;;;14.38;10.98;;;;;;;9.89;89.73;100425.41;5094374;28;20526;-69
2022/04/24 03:24:04;;;;;;;13.93;9.77;;;;;;;9.80;89.44;100434.06;5094310;28;20383;-69
2022/04/24 03:26:29;;;;;;;15.50;10.23;;;;;;;9.76;90.00;100430.50;5094068;28;20118;-69
2022/04/24 03:28:56;;;;;;;15.38;10.90;;;;;;;9.80;90.26;100434.06;5093904;28;20093;-69
2022/04/24 03:31:23;;;;;;;13.00;10.32;;;;;;;9.81;90.03;100432.31;5093846;28;20424;-69
2022/04/24 03:33:48;;;;;;;14.13;10.05;;;;;;;9.72;89.71;100433.97;5093923;28;20544;-68
2022/04/24 03:36:13;;;;;;;13.27;10.25;;;;;;;9.77;90.55;100434.91;5093218;28;20028;-68
2022/04/24 03:38:39;;;;;;;17.83;10.32;;;;;;;9.74;90.19;100429.63;5092644;28;20024;-68
2022/04/24 03:41:04;;;;;;;15.70;10.38;;;;;;;9.78;90.51;100422.69;5093886;28;20035;-68
2022/04/24 03:43:29;;;;;;;10.55;8.90;;;;;;;9.61;90.81;100420.69;5093379;28;20496;-69
2022/04/24 03:45:55;;;;;;;13.02;10.57;;;;;;;9.57;90.68;100418.88;5093628;28;20036;-68
2022/04/24 03:48:20;;;;;;;13.68;9.75;;;;;;;9.56;90.72;100418.84;5093857;28;20020;-68
2022/04/24 03:50:45;;;;;;;11.73;9.73;;;;;;;9.64;91.30;100422.47;5093565;28;20028;-68
2022/04/24 03:53:12;;;;;;;13.57;9.85;;;;;;;9.57;90.91;100418.88;5093401;28;20115;-68
2022/04/24 03:55:38;;;;;;;12.10;9.85;;;;;;;9.59;91.56;100414.53;5093695;28;20088;-68
2022/04/24 03:58:03;;;;;;;12.38;9.43;;;;;;;9.57;91.23;100413.63;5093525;28;20031;-68
2022/04/24 04:00:28;;;;;;;16.58;9.70;;;;;;;9.54;91.31;100423.22;5092984;28;20032;-68
2022/04/24 04:02:54;;;;;;;11.50;9.38;;;;;;;9.50;91.09;100424.91;5093236;28;20040;-68
2022/04/24 04:05:21;;;;;;;13.18;10.02;;;;;;;9.45;91.49;100422.25;5092895;28;20052;-68
2022/04/24 04:07:46;;;;;;;14.05;9.43;;;;;;;9.44;90.99;100428.34;5093580;28;20028;-69
2022/04/24 04:10:12;;;;;;;14.45;9.95;;;;;;;9.45;90.86;100424.88;5093282;28;20028;-69
2022/04/24 04:12:37;;;;;;;12.38;9.02;;;;;;;9.42;91.28;100431.81;5092954;28;20219;-69
2022/04/24 04:15:04;;;;;;;10.70;9.15;;;;;;;9.48;91.46;100423.13;5093060;28;20070;-68
2022/04/24 04:17:30;;;;;;;15.25;9.13;;;;;;;9.47;91.17;100424.88;5092984;28;20123;-68
2022/04/24 04:19:55;;;;;;;16.27;9.85;;;;;;;9.47;91.86;100426.59;5089577;28;20161;-68
2022/04/24 04:22:20;;;;;;;16.98;8.90;;;;;;;9.44;91.51;100428.34;5090565;28;20472;-68
2022/04/24 04:24:45;;;;;;;14.93;8.35;;;;;;;9.40;91.40;100434.41;5088499;28;20028;-69
2022/04/24 04:27:11;;;;;;;10.93;8.75;;;;;;;9.39;91.48;100429.13;5089473;28;20024;-69
2022/04/24 04:29:36;;;;;;;11.32;8.63;;;;;;;9.40;92.19;100431.78;5090299;28;20031;-68
2022/04/24 04:32:03;;;;;;;11.68;8.60;;;;;;;9.34;92.12;100436.06;5092882;28;20023;-69
2022/04/24 04:34:28;;;;;;;14.52;8.68;;;;;;;9.23;91.84;100433.28;5092999;28;20028;-68
2022/04/24 04:36:53;;;;;;;12.73;9.00;;;;;;;9.16;92.47;100436.66;5093304;28;20604;-69
2022/04/24 04:39:20;;;;;;;10.80;8.63;;;;;;;9.14;93.09;100438.38;5092659;28;20026;-68
2022/04/24 04:41:46;;;;;;;13.70;8.75;;;;;;;9.17;92.82;100443.66;5092695;28;20106;-68
2022/04/24 04:44:11;;;;;;;11.52;8.55;;;;;;;9.18;92.83;100451.56;5092431;28;20495;-69
2022/04/24 04:46:36;;;;;;;13.40;8.43;;;;;;;9.10;92.94;100453.19;5092857;28;20032;-69
2022/04/24 04:49:02;;;;;;;8.93;8.02;;;;;;;9.07;92.93;100448.75;5092714;28;20051;-69
2022/04/24 04:51:27;;;;;;;11.15;8.00;;;;;;;9.14;92.93;100455.00;5093166;28;20031;-69
2022/04/24 04:53:54;;;;;;;10.88;8.15;;;;;;;9.14;92.76;100452.38;5092693;28;20023;-70
2022/04/24 04:56:20;;;;;;;9.45;7.45;;;;;;;9.17;93.04;100446.28;5091345;28;20056;-69
2022/04/24 04:58:45;;;;;;;10.73;7.95;;;;;;;9.21;93.08;100450.72;5091965;28;20434;-69
2022/04/24 05:01:11;;;;;;;11.40;8.05;;;;;;;9.22;92.61;100450.75;5091472;28;20376;-69
2022/04/24 05:03:37;;;;;;;10.15;8.15;;;;;;;9.22;92.87;100455.13;5090888;28;20085;-70
2022/04/24 05:06:02;;;;;;;10.80;7.95;;;;;;;9.27;92.07;100461.34;5092026;28;20024;-69
2022/04/24 05:08:27;;;;;;;12.55;7.82;;;;;;;9.28;92.75;100466.59;5092308;28;20035;-69
2022/04/24 05:10:53;;;;;;;11.15;8.02;;;;;;;9.32;91.96;100464.94;5092151;28;20027;-69
2022/04/24 05:13:18;;;;;;;11.00;7.60;;;;;;;9.38;91.34;100465.00;5092023;28;20062;-69
2022/04/24 05:15:43;;;;;;;14.75;7.13;;;;;;;9.31;91.86;100467.53;5092230;28;20046;-69
2022/04/24 05:18:09;;;;;;;10.15;7.47;;;;;;;9.35;91.36;100469.34;5092396;28;20064;-70
2022/04/24 05:20:34;;;;;;;15.48;8.25;;;;;;;9.39;91.18;100477.28;5092356;28;20024;-69
2022/04/24 05:23:07;;;;;;;8.77;7.28;;;;;;;9.33;91.81;100471.06;5096082;28;20024;-69
2022/04/24 05:25:33;;;;;;;7.60;6.25;;;;;;;9.38;90.60;100475.50;5087864;28;20028;-70
2022/04/24 05:28:00;;;;;;;9.70;7.55;;;;;;;9.49;90.18;100477.44;5095431;28;20024;-74
2022/04/24 05:30:27;;;;;;;8.63;6.90;;;;;;;9.45;90.38;100474.75;5095336;28;20054;-69
2022/04/24 05:32:52;;;;;;;9.80;6.80;;;;;;;9.42;90.48;100476.44;5095641;28;20419;-69
2022/04/24 05:35:17;;;;;;;11.57;7.35;;;;;;;9.48;89.98;100484.41;5096394;28;20020;-70
2022/04/24 05:37:45;;;;;;;10.25;7.47;;;;;;;9.52;89.70;100481.00;5095771;28;20043;-69
2022/04/24 05:40:11;;;;;;;10.00;7.05;;;;;;;9.50;90.20;100489.72;5096081;28;20036;-69
2022/04/24 05:42:45;;;;;;;10.48;7.82;;;;;;;9.51;90.09;100491.44;5094228;28;20115;-70
2022/04/24 05:45:14;;;;;;;8.48;6.47;;;;;;;9.57;89.30;100487.16;5092372;28;20027;-69
2022/04/24 05:47:40;;;;;;;9.90;7.00;;;;;;;9.66;89.38;100489.06;5095305;28;20024;-70
2022/04/24 05:50:06;;;;;;;15.65;7.43;;;;;;;9.69;88.95;100490.84;5094269;28;20043;-70
2022/04/24 05:52:31;;;;;;;13.60;7.30;;;;;;;9.66;89.04;100489.06;5095940;28;20020;-69
2022/04/24 05:54:57;;;;;;;8.43;6.57;;;;;;;9.66;89.48;100502.19;5095805;28;20023;-69
2022/04/24 05:57:23;;;;;;;9.48;7.28;;;;;;;9.73;89.70;100501.41;5095491;28;20024;-69
2022/04/24 05:59:48;;;;;;;10.02;7.05;;;;;;;9.78;89.08;100497.13;5095689;28;20024;-70
2022/04/24 06:02:13;;;;;;;10.85;7.32;;;;;;;9.86;87.92;100497.25;5095568;28;20492;-69
2022/04/24 06:04:38;;;;;;;7.93;6.63;;;;;;;9.81;87.64;100495.38;5095883;28;20111;-69
2022/04/24 06:07:04;;;;;;;12.23;6.65;;;;;;;9.86;87.61;100498.97;5095360;28;20052;-69
2022/04/24 06:09:29;;;;;;;11.20;6.65;;;;;;;9.90;87.37;100499.03;5095282;28;20480;-70
2022/04/24 06:11:58;;;;;;;9.25;7.22;;;;;;;9.90;87.51;100506.94;5076165;28;20306;-69
2022/04/24 06:14:24;;;;;;;8.98;6.68;;;;;;;9.98;86.56;100503.50;5099804;28;20056;-70
2022/04/24 06:16:49;;;;;;;8.50;6.50;;;;;;;9.95;87.09;100504.34;5096118;28;20042;-69
2022/04/24 06:19:21;;;;;;;11.00;7.50;;;;;;;9.96;87.23;100509.63;5096055;28;20148;-70
2022/04/24 06:21:46;;;;;;;10.95;7.55;;;;;;;10.04;87.18;100506.25;5094496;28;20052;-71
2022/04/24 06:24:11;;;;;;;11.00;7.45;;;;;;;10.13;86.06;100508.97;5093453;28;20407;-70
2022/04/24 06:26:37;;;;;;;9.55;6.65;;;;;;;10.15;85.21;100507.25;5092400;28;20023;-70
2022/04/24 06:29:02;;;;;;;16.98;7.07;;;;;;;10.16;86.33;100514.28;5094633;28;20020;-71
2022/04/24 06:31:28;;;;;;;13.35;6.72;;;;;;;10.16;86.41;100510.75;5095164;28;20099;-70
2022/04/24 06:33:53;;;;;;;8.50;6.65;;;;;;;10.22;85.38;100508.22;5093428;28;20359;-69
2022/04/24 06:36:19;;;;;;;11.02;6.47;;;;;;;10.29;85.14;100515.31;5094569;28;20455;-70
2022/04/24 06:38:44;;;;;;;8.43;6.05;;;;;;;10.32;85.05;100517.97;5094899;28;20038;-70
2022/04/24 06:41:09;;;;;;;11.52;6.50;;;;;;;10.39;84.80;100511.06;5092769;28;20031;-70
2022/04/24 06:43:34;;;;;;;10.48;7.15;;;;;;;10.38;85.75;100520.72;5087883;28;20021;-70
2022/04/24 06:46:00;;;;;;;9.48;6.35;;;;;;;10.43;84.96;100513.75;5092622;28;20483;-71
2022/04/24 06:48:25;;;;;;;9.95;6.57;;;;;;;10.46;84.92;100523.44;5086395;28;20066;-69
2022/04/24 06:50:50;;;;;;;7.80;6.68;;;;;;;10.51;84.88;100513.84;5077641;28;20490;-70
2022/04/24 06:53:18;;;;;;;12.10;6.47;;;;;;;10.61;83.71;100522.75;5091994;28;20440;-69
2022/04/24 06:55:45;;;;;;;11.13;7.00;;;;;;;10.65;84.08;100518.38;5093853;28;20031;-70
2022/04/24 06:58:12;;;;;;;10.23;6.60;;;;;;;10.64;84.23;100517.50;5092250;28;20129;-69
2022/04/24 07:00:40;;;;;;;9.18;6.18;;;;;;;10.65;82.57;100516.66;5093635;28;20105;-73
2022/04/24 07:03:17;;;;;;;9.43;6.65;;;;;;;10.70;82.27;100525.47;5092968;28;20166;-70
2022/04/24 07:05:43;;;;;;;8.32;6.43;;;;;;;10.74;83.34;100529.91;5092167;28;20024;-70
2022/04/24 07:08:09;;;;;;;7.88;6.72;;;;;;;10.81;82.73;100530.81;5094925;28;20027;-70
2022/04/24 07:10:35;;;;;;;9.10;6.22;;;;;;;10.80;82.31;100531.72;5092616;28;20020;-69
2022/04/24 07:13:01;;;;;;;10.35;6.75;;;;;;;10.87;82.38;100530.03;5091141;28;20043;-70
2022/04/24 07:15:35;;;;;;;9.48;7.30;;;;;;;10.83;83.78;100525.59;5092025;28;20024;-70
2022/04/24 07:18:01;;;;;;;12.82;6.20;;;;;;;10.96;82.91;100527.50;5092659;28;20052;-68
2022/04/24 07:20:29;;;;;;;8.00;6.93;;;;;;;11.06;81.27;100531.09;5092153;28;20119;-70
2022/04/24 07:23:01;;;;;;;13.20;7.28;;;;;;;11.05;82.26;100535.47;5089778;28;20032;-71
2022/04/24 07:25:28;;;;;;;13.98;7.22;;;;;;;11.18;81.60;100536.47;5092102;28;20395;-69
2022/04/24 07:27:54;;;;;;;8.13;6.28;;;;;;;11.25;80.22;100538.28;5093055;28;20031;-70
2022/04/24 07:30:21;;;;;;;9.85;6.28;;;;;;;11.29;79.03;100544.47;5092893;28;20023;-71
2022/04/24 07:32:47;;;;;;;7.63;5.70;;;;;;;11.34;78.81;100534.84;5092438;28;20107;-70
2022/04/24 07:35:16;;;;;;;9.30;6.57;;;;;;;11.36;79.15;100538.38;5093584;28;20024;-70
2022/04/24 07:37:42;;;;;;;7.22;5.88;;;;;;;11.43;79.69;100531.41;5090940;28;20032;-70
2022/04/24 07:40:09;;;;;;;7.93;6.43;;;;;;;11.53;79.36;100542.88;5093276;28;20016;-70
2022/04/24 07:42:57;;;;;;;11.63;6.53;;;;;;;11.51;77.91;100534.09;5093360;28;20427;-71
2022/04/24 07:45:31;;;;;;;8.25;6.43;;;;;;;11.44;78.61;100539.31;5092154;28;20024;-70
2022/04/24 07:47:58;;;;;;;8.55;6.75;;;;;;;11.52;79.57;100535.88;5093468;28;20036;-70
2022/04/24 07:50:26;;;;;;;8.02;6.18;;;;;;;11.74;78.31;100534.28;5093626;28;20044;-70
2022/04/24 07:52:52;;;;;;;11.13;6.50;;;;;;;11.85;76.54;100537.84;5093654;28;20036;-71
2022/04/24 07:55:21;;;;;;;7.05;6.03;;;;;;;11.93;76.24;100540.53;5092812;28;20100;-71
2022/04/24 07:57:47;;;;;;;13.32;6.32;;;;;;;12.00;76.43;100534.47;5091767;28;20034;-70
2022/04/24 08:00:14;;;;;;;7.15;6.45;;;;;;;12.09;76.19;100539.78;5092990;28;20133;-72
2022/04/24 08:02:52;;;;;;;7.70;6.38;;;;;;;12.14;75.86;100542.47;5091251;28;20060;-71
2022/04/24 08:05:26;;;;;;;8.38;6.40;;;;;;;12.26;75.95;100546.91;5107013;27;20070;-71
2022/04/24 08:07:53;;;;;;;7.40;5.97;;;;;;;12.28;75.98;100555.72;5090991;28;20361;-71
2022/04/24 08:10:20;;;;;;;15.95;6.28;;;;;;;12.42;76.25;100553.13;5091836;28;20107;-71
2022/04/24 08:12:46;;;;;;;11.02;6.60;;;;;;;12.41;76.51;100554.91;5091185;28;20020;-72
2022/04/24 08:15:12;;;;;;;13.13;6.57;;;;;;;12.54;75.60;100562.88;5090032;28;20437;-71
2022/04/24 08:17:37;;;;;;;8.27;6.00;;;;;;;12.66;75.31;100565.56;5092737;28;20100;-71
2022/04/24 08:20:04;;;;;;;7.55;5.93;;;;;;;12.77;74.56;100571.75;5091826;28;20052;-72
2022/04/24 08:22:46;;;;;;;7.78;5.90;;;;;;;12.95;73.94;100570.94;5091713;28;20051;-72
2022/04/24 08:25:15;;;;;;;9.02;5.82;;;;;;;13.07;73.11;100563.91;5108306;28;20024;-71
2022/04/24 08:27:41;;;;;;;9.68;6.65;;;;;;;13.12;70.77;100557.72;5091453;28;20375;-72
2022/04/24 08:30:08;;;;;;;9.45;6.13;;;;;;;13.18;71.57;100554.22;5092682;28;20036;-73
2022/04/24 08:32:34;;;;;;;12.48;6.93;;;;;;;13.28;71.43;100565.66;5093340;28;20073;-72
2022/04/24 08:35:00;;;;;;;11.30;6.05;;;;;;;13.43;69.67;100564.81;5092462;28;20383;-72
2022/04/24 08:37:26;;;;;;;9.23;6.05;;;;;;;13.49;69.33;100567.50;5092517;28;20024;-72
2022/04/24 08:39:53;;;;;;;10.32;6.60;;;;;;;13.65;70.40;100571.00;5092493;28;20379;-70
2022/04/24 08:42:21;;;;;;;8.40;7.00;;;;;;;13.73;68.90;100566.59;5092841;28;20093;-72
2022/04/24 08:44:51;;;;;;;7.88;6.57;;;;;;;13.82;69.54;100571.88;5090354;28;20024;-71
2022/04/24 08:47:17;;;;;;;8.52;6.13;;;;;;;13.90;69.36;100573.63;5091323;28;20035;-72
2022/04/24 08:49:43;;;;;;;8.45;6.68;;;;;;;13.97;68.70;100570.06;5091286;28;20523;-71
2022/04/24 08:52:09;;;;;;;9.02;6.35;;;;;;;14.16;69.45;100576.22;5090750;28;20154;-73
2022/04/24 08:54:36;;;;;;;8.20;6.43;;;;;;;14.14;70.73;100578.00;5092282;28;20028;-73
2022/04/24 08:57:01;;;;;;;9.05;6.35;;;;;;;14.35;69.10;100584.97;5091743;28;20028;-73
2022/04/24 08:59:26;;;;;;;11.85;6.80;;;;;;;14.44;68.92;100587.59;5091010;28;20020;-73
2022/04/24 09:01:52;;;;;;;9.55;6.75;;;;;;;14.61;68.78;100589.28;5070331;28;20117;-80
2022/04/24 09:04:18;;;;;;;7.75;6.53;;;;;;;14.74;67.47;100585.75;5076581;28;20024;-72
2022/04/24 09:06:57;;;;;;;6.78;6.07;;;;;;;14.75;66.33;100576.91;5088631;28;20028;-73
2022/04/24 09:09:23;;;;;;;8.77;5.90;;;;;;;14.84;67.89;100583.94;5090902;28;20024;-72
2022/04/24 09:11:48;;;;;;;9.30;6.43;;;;;;;14.99;68.57;100581.19;5090601;28;20387;-72
2022/04/24 09:14:20;;;;;;;10.02;6.10;;;;;;;15.09;66.42;100579.38;5092228;28;20127;-73
2022/04/24 09:16:48;;;;;;;10.57;6.93;;;;;;;15.13;67.81;100578.47;5090283;28;20134;-72
2022/04/24 09:19:22;;;;;;;14.38;7.10;;;;;;;15.23;68.83;100589.00;5091240;28;20094;-73
2022/04/24 09:21:48;;;;;;;;;;;;;;;15.33;65.67;100586.28;5091418;28;20032;-73
2022/04/24 09:24:14;;;;;;;7.93;6.63;;;;;;;15.33;65.56;100580.09;5090804;28;20367;-72
2022/04/24 09:26:57;;;;;;;13.32;6.50;;;;;;;15.33;63.88;100580.09;5091757;28;20183;-71
2022/04/24 09:29:23;;;;;;;14.10;6.22;;;;;;;15.44;64.58;100587.97;5104162;28;20024;-71
2022/04/24 09:31:49;;;;;;;29.15;6.75;;;;;;;15.57;64.76;100594.06;5091777;28;20032;-71
2022/04/24 09:34:17;;;;;;;11.43;6.15;;;;;;;15.66;62.92;100589.53;5091867;28;20059;-76
2022/04/24 09:36:43;;;;;;;9.57;6.20;;;;;;;15.69;63.85;100591.28;5091719;28;20048;-71
2022/04/24 09:39:08;;;;;;;14.40;5.90;;;;;;;15.91;63.08;100600.00;5091390;28;20018;-71
2022/04/24 09:41:34;;;;;;;16.38;5.85;;;;;;;15.97;60.78;100591.09;5089758;28;20382;-70
2022/04/24 09:44:11;;;;;;;20.83;7.78;;;;;;;16.11;61.65;100594.47;5090975;28;20020;-71
2022/04/24 09:46:36;;;;;;;23.00;6.68;;;;;;;16.05;61.25;100591.88;5091910;28;20110;-71
2022/04/24 09:49:02;;;;;;;15.98;7.45;;;;;;;16.24;62.47;100597.88;5091221;28;20472;-71
2022/04/24 09:51:28;;;;;;;6.70;6.05;;;;;;;16.33;59.85;100594.22;5088635;28;20111;-71
2022/04/24 09:53:58;;;;;;;9.88;6.50;;;;;;;16.38;59.89;100595.06;5091286;28;20031;-72
2022/04/24 09:56:27;;;;;;;11.35;6.25;;;;;;;16.54;59.49;100595.78;5092222;28;20402;-72
2022/04/24 09:58:53;;;;;;;8.88;5.82;;;;;;;16.61;58.25;100593.94;5090695;28;20341;-71
2022/04/24 10:01:18;;;;;;;9.88;5.28;;;;;;;16.81;58.77;100594.53;5094035;28;20027;-71
2022/04/24 10:03:45;;;;;;;8.75;5.40;;;;;;;16.97;58.77;100602.31;5091464;28;20069;-71
2022/04/24 10:06:11;;;;;;;9.68;5.47;;;;;;;17.04;56.86;100590.72;5091866;28;20475;-70
2022/04/24 10:08:38;;;;;;;11.00;6.68;;;;;;;16.97;57.81;100594.34;5095278;28;20077;-69
2022/04/24 10:11:07;;;;;;;11.80;5.82;;;;;;;17.09;57.39;100603.94;5094881;28;20027;-71
2022/04/24 10:13:42;;;;;;;12.13;6.20;;;;;;;17.19;57.70;100598.47;5095645;28;20035;-70
2022/04/24 10:16:16;;;;;;;10.15;6.05;;;;;;;17.30;56.75;100600.09;5095683;28;20039;-71
2022/04/24 10:19:00;;;;;;;8.73;6.13;;;;;;;17.31;55.37;100591.22;5094798;28;20100;-71
2022/04/24 10:21:35;;;;;;;7.35;6.07;;;;;;;17.62;54.63;100606.69;5091753;28;20037;-72
2022/04/24 10:24:09;;;;;;;7.70;6.05;;;;;;;17.41;54.29;100597.28;5092926;28;20032;-72
2022/04/24 10:26:35;;;;;;;;;;;;;;;17.77;56.71;100600.22;5095381;28;20031;-72
2022/04/24 10:29:04;;;;;;;8.93;6.78;;;;;;;17.86;54.45;100598.31;5086490;28;19912;-72
2022/04/24 10:31:41;;;;;;;8.38;5.85;;;;;;;17.85;53.75;100598.31;5095266;28;20020;-72
2022/04/24 10:34:06;;;;;;;9.63;6.15;;;;;;;18.10;55.03;100605.91;5086358;28;20124;-71
2022/04/24 10:36:32;;;;;;;7.07;6.03;;;;;;;18.08;53.28;100605.94;5093152;28;20542;-71
2022/04/24 10:38:59;;;;;;;8.52;6.32;;;;;;;18.17;53.24;100603.06;5098549;28;20387;-71
2022/04/24 10:41:28;;;;;;;11.32;6.72;;;;;;;18.37;53.94;100604.50;5092501;28;20032;-71
2022/04/24 10:43:58;;;;;;;13.93;6.85;;;;;;;18.59;53.51;100604.06;5094075;28;20027;-72
2022/04/24 10:46:33;;;;;;;9.25;6.47;;;;;;;18.72;51.40;100600.25;5093348;28;20036;-72
2022/04/24 10:49:11;;;;;;;7.70;6.90;;;;;;;18.90;52.35;100599.00;5094374;28;20387;-72
2022/04/24 10:51:38;;;;;;;10.50;5.55;;;;;;;18.80;49.33;100608.06;5091627;28;20062;-73
2022/04/24 10:54:13;;;;;;;9.95;6.55;;;;;;;18.75;51.03;100600.16;5090918;28;20039;-73
2022/04/24 10:56:41;;;;;;;9.40;6.50;;;;;;;18.95;50.24;100596.22;5087503;28;20524;-72
2022/04/24 10:59:20;;;;;;;10.00;5.97;;;;;;;19.29;50.99;100600.78;5085166;28;20112;-71
2022/04/24 11:01:58;;;;;;;13.68;6.38;;;;;;;19.27;47.51;100591.94;5092253;28;20066;-73
2022/04/24 11:04:25;;;;;;;10.93;6.10;;;;;;;19.28;48.07;100583.91;5092598;28;20051;-71
2022/04/24 11:06:58;;;;;;;7.97;6.13;;;;;;;19.57;50.24;100594.78;5091176;28;20093;-73
2022/04/24 11:09:28;;;;;;;8.57;6.05;;;;;;;19.71;50.22;100598.88;5094833;28;20391;-72
2022/04/24 11:11:59;;;;;;;6.88;5.72;;;;;;;19.71;47.24;100588.19;5092995;28;20024;-72
2022/04/24 11:14:26;;;;;;;9.13;6.18;;;;;;;19.96;46.42;100592.03;5090624;28;20074;-71
2022/04/24 11:16:57;;;;;;;6.68;5.43;;;;;;;20.01;45.26;100582.13;5091448;28;20039;-72
2022/04/24 11:19:36;;;;;;;8.60;5.88;;;;;;;19.92;45.08;100579.69;5092996;28;20027;-72
2022/04/24 11:22:10;;;;;;;9.75;5.43;;;;;;;20.08;46.75;100586.38;5093619;28;20024;-72